Historique des mesures à Cassis (13260), France
Quotidien Résumé Juin 16, 2018 Unités:  Métrique    US   Métrique/US
« Précédent (Jour)
Suivant (Jour) »
Quotidien Hebdomadaire Mensuel Annuel Période au choix
  Maximum: Minimum: Moyenne:
Température: TemperatureC °C 19.5 °C 23.5 °C
Point de rosée: DewpointC °C 13.1 °C 15.2 °C
Humidité: Humidity % 51 % 57 %
Vitesse du vent: 0 km/h 0 km/h 3.5 km/h
Rafales: 0 km/h - -
Vent:- - SSE
Pression: PressurehPa hPa 1007.5 hPa -
Précipitations: 0.0 mm    
Historical Graphs
 
 
Mesures pour : Juin 16, 2018
Heure Temperature Point de rosée Pression Vent Vitesse du vent Rafales Humidité Pluie (par heure) Conditions
TemperatureC °C DewpointC °C PressurehPa hPa Calm     Humidity % HourlyPrecipMM mm SoftwareType W/m2
00:10 22.3 °C 13.1 °C 1008.0 hPa Calm   10.3 km/h 56 % 0.0 mm open2300-1.11 W/m2
01:10 21.3 °C 13.3 °C 1008.2 hPa NNW 5.6 km/h 5.6 km/h 60 % 0.0 mm open2300-1.11 W/m2
02:10 20.7 °C 13.4 °C 1008.1 hPa NNW 7.6 km/h 12.2 km/h 63 % 0.0 mm open2300-1.11 W/m2
03:10 20.4 °C 13.3 °C 1007.8 hPa WNW 9.8 km/h 9.8 km/h 64 % 0.0 mm open2300-1.11 W/m2
04:10 19.9 °C 13.3 °C 1007.5 hPa North 8 km/h 9.3 km/h 66 % 0.0 mm open2300-1.11 W/m2
05:10 19.6 °C 13.1 °C 1007.7 hPa Calm     66 % 0.0 mm open2300-1.11 W/m2
06:10 19.5 °C 13.2 °C 1008.0 hPa NW 3.4 km/h 3.4 km/h 67 % 0.0 mm open2300-1.11 W/m2
07:10 20.2 °C 13.4 °C 1008.0 hPa Calm     65 % 0.0 mm open2300-1.11 W/m2
08:10 22.6 °C 14.9 °C 1008.5 hPa ESE 5.1 km/h 10.9 km/h 62 % 0.0 mm open2300-1.11 W/m2
09:10 22.5 °C 15.3 °C 1008.7 hPa Calm     64 % 0.0 mm open2300-1.11 W/m2
10:10 24.8 °C 16.5 °C 1009.0 hPa Calm   6.4 km/h 60 % 0.0 mm open2300-1.11 W/m2
11:10 27.8 °C 17.3 °C 1008.9 hPa SSE 10.9 km/h 11.6 km/h 53 % 0.0 mm open2300-1.11 W/m2
12:10 28.9 °C 17.8 °C 1009.5 hPa South 5.1 km/h 8.9 km/h 51 % 0.0 mm open2300-1.11 W/m2
13:10 29.0 °C 18.4 °C 1009.7 hPa SE 7.6 km/h 22.5 km/h 53 % 0.0 mm open2300-1.11 W/m2
14:10 29.1 °C 19.2 °C 1009.6 hPa South 4.2 km/h 17.9 km/h 55 % 0.0 mm open2300-1.11 W/m2
15:10 28.8 °C 19.4 °C 1009.4 hPa SSE 6.4 km/h 6.4 km/h 57 % 0.0 mm open2300-1.11 W/m2
16:10 28.6 °C 18.7 °C 1009.3 hPa SE 3.4 km/h 6.4 km/h 55 % 0.0 mm open2300-1.11 W/m2
17:10 28.1 °C 18.2 °C 1009.0 hPa Calm   7.6 km/h 55 % 0.0 mm open2300-1.11 W/m2
18:10 27.3 °C 17.7 °C 1008.8 hPa Calm   16.9 km/h 56 % 0.0 mm open2300-1.11 W/m2
19:10 26.1 °C 17.5 °C 1008.7 hPa Calm   6.9 km/h 59 % 0.0 mm open2300-1.11 W/m2
20:10 24.9 °C 17.1 °C 1008.9 hPa Calm     62 % 0.0 mm open2300-1.11 W/m2
21:10 24.4 °C 15.9 °C 1008.8 hPa North 5.1 km/h 6.4 km/h 59 % 0.0 mm open2300-1.11 W/m2
22:10 24.9 °C 14.9 °C 1009.3 hPa North 6.9 km/h 10.9 km/h 54 % 0.0 mm open2300-1.11 W/m2
23:10 24.9 °C 14.4 °C 1009.6 hPa Calm   12.2 km/h 52 % 0.0 mm open2300-1.11 W/m2
Observations météo à CASSIS
WU-History script by Weather Underground - 1 mb